Terminal Aerodrome Forecast
Issued by NWS

Home | Current Version | Previous Version | Text Only | Print | Product List | Glossary On
Versions: 1 2 3 4 5 6 7 8 9 10 11 12 13 14 15 16 17 18 19 20 21 22 23 24 25 26
000
FTUS41 KBOX 191125
TAFBED
TAF
KBED 191125Z 1912/2012 01005KT P6SM SKC
     FM191600 06008KT P6SM SKC
     FM192000 10008KT P6SM SKC
     FM200100 13004KT P6SM SKC
     FM200300 00000KT P6SM SKC=

USA.gov is the U.S. government's official web portal to all federal, state and local government web resources and services.